createdAt,value
2023-05-10T00:04:49.054Z,8.38
2023-05-10T00:07:16.869Z,8.36
2023-05-10T00:09:43.286Z,8.32
2023-05-10T00:12:10.042Z,8.36
2023-05-10T00:14:36.620Z,8.35
2023-05-10T00:17:03.110Z,8.32
2023-05-10T00:19:29.598Z,8.26
2023-05-10T00:21:56.335Z,8.27
2023-05-10T00:24:22.851Z,8.25
2023-05-10T00:26:49.313Z,8.23
2023-05-10T00:29:15.824Z,8.20
2023-05-10T00:31:42.359Z,8.15
2023-05-10T00:34:08.874Z,8.14
2023-05-10T00:36:35.374Z,8.09
2023-05-10T00:39:01.849Z,8.09
2023-05-10T00:41:28.588Z,8.06
2023-05-10T00:43:55.072Z,8.02
2023-05-10T00:46:22.401Z,7.99
2023-05-10T00:48:49.580Z,7.98
2023-05-10T00:51:16.291Z,8.00
2023-05-10T00:53:43.712Z,7.90
2023-05-10T00:56:10.222Z,7.88
2023-05-10T00:58:37.316Z,7.84
2023-05-10T01:01:04.478Z,7.83
2023-05-10T01:03:31.900Z,7.83
2023-05-10T01:05:58.496Z,7.85
2023-05-10T01:08:26.712Z,7.79
2023-05-10T01:10:53.626Z,7.80
2023-05-10T01:13:37.207Z,7.77
2023-05-10T01:16:04.566Z,7.77
2023-05-10T01:18:34.088Z,7.75
2023-05-10T01:21:12.294Z,7.74
2023-05-10T01:24:03.601Z,7.75
2023-05-10T01:26:55.403Z,7.72
2023-05-10T01:30:05.036Z,7.65
2023-05-10T01:32:54.323Z,7.59
2023-05-10T01:35:38.606Z,7.56
2023-05-10T01:38:23.611Z,7.52
2023-05-10T01:41:17.338Z,7.49
2023-05-10T01:43:53.806Z,7.45
2023-05-10T01:46:36.166Z,7.43
2023-05-10T01:49:05.078Z,7.38
2023-05-10T01:51:49.999Z,7.37
2023-05-10T01:54:20.435Z,7.30
2023-05-10T01:56:51.366Z,7.22
2023-05-10T01:59:20.154Z,7.22
2023-05-10T02:01:48.610Z,7.17
2023-05-10T02:04:17.749Z,7.17
2023-05-10T02:06:46.059Z,7.16
2023-05-10T02:09:14.612Z,7.13
2023-05-10T02:11:44.718Z,7.11
2023-05-10T02:14:12.566Z,7.10
2023-05-10T02:16:41.549Z,7.08
2023-05-10T02:19:09.761Z,7.03
2023-05-10T02:21:38.092Z,6.96
2023-05-10T02:24:06.091Z,6.94
2023-05-10T02:26:34.156Z,6.96
2023-05-10T02:29:04.135Z,6.90
2023-05-10T02:31:33.305Z,6.87
2023-05-10T02:34:01.687Z,6.86
2023-05-10T02:36:29.620Z,6.84
2023-05-10T02:38:56.975Z,6.82
2023-05-10T02:41:24.168Z,6.79
2023-05-10T02:43:53.380Z,6.73
2023-05-10T02:46:20.165Z,6.69
2023-05-10T02:48:46.760Z,6.64
2023-05-10T02:51:18.591Z,6.60
2023-05-10T02:53:47.947Z,6.52
2023-05-10T02:56:32.682Z,6.46
2023-05-10T02:58:59.189Z,6.39
2023-05-10T03:01:25.765Z,6.30
2023-05-10T03:03:52.338Z,6.29
2023-05-10T03:06:18.822Z,6.26
2023-05-10T03:08:46.119Z,6.24
2023-05-10T03:11:45.740Z,6.23
2023-05-10T03:14:24.481Z,6.22
2023-05-10T03:17:23.285Z,6.21
2023-05-10T03:20:05.304Z,6.23
2023-05-10T03:22:35.760Z,6.23
2023-05-10T03:25:07.068Z,6.28
2023-05-10T03:27:36.187Z,6.31
2023-05-10T03:30:03.542Z,6.37
2023-05-10T03:32:32.798Z,6.45
2023-05-10T03:34:59.295Z,6.52
2023-05-10T03:37:25.795Z,6.53
2023-05-10T03:39:52.302Z,6.58
2023-05-10T03:42:18.948Z,6.62
2023-05-10T03:44:45.389Z,6.67
2023-05-10T03:47:11.889Z,6.70
2023-05-10T03:49:38.363Z,6.72
2023-05-10T03:52:05.027Z,6.79
2023-05-10T03:54:31.627Z,6.82
2023-05-10T03:56:58.075Z,6.92
2023-05-10T03:59:24.665Z,6.99
2023-05-10T04:01:51.095Z,7.12
2023-05-10T04:04:19.575Z,7.28
2023-05-10T04:06:46.244Z,7.48
2023-05-10T04:09:12.909Z,7.60
2023-05-10T04:11:39.389Z,7.66
2023-05-10T04:14:05.983Z,7.71
2023-05-10T04:16:32.555Z,7.66
2023-05-10T04:18:59.162Z,7.68
2023-05-10T04:21:25.650Z,7.69
2023-05-10T04:23:52.075Z,7.73
2023-05-10T04:26:18.607Z,7.71
2023-05-10T04:28:45.080Z,7.76
2023-05-10T04:31:11.592Z,7.81
2023-05-10T04:33:38.277Z,7.82
2023-05-10T04:36:05.322Z,7.90
2023-05-10T04:38:31.788Z,8.02
2023-05-10T04:41:09.156Z,8.09
2023-05-10T04:43:36.354Z,8.22
2023-05-10T04:46:03.340Z,8.38
2023-05-10T04:48:30.183Z,8.51
2023-05-10T04:50:57.373Z,8.57
2023-05-10T04:53:24.024Z,8.62
2023-05-10T04:55:50.728Z,8.58
2023-05-10T04:58:17.371Z,8.71
2023-05-10T05:00:43.916Z,8.72
2023-05-10T05:03:10.753Z,8.80
2023-05-10T05:05:37.352Z,8.83
2023-05-10T05:08:04.173Z,8.96
2023-05-10T05:10:30.964Z,9.03
2023-05-10T05:12:57.464Z,9.22
2023-05-10T05:15:24.138Z,9.58
2023-05-10T05:17:50.659Z,10.07
2023-05-10T05:20:17.463Z,10.50
2023-05-10T05:22:44.268Z,11.24
2023-05-10T05:25:10.822Z,12.03
2023-05-10T05:27:37.333Z,12.53
2023-05-10T05:30:05.189Z,12.87
2023-05-10T05:32:31.727Z,13.06
2023-05-10T05:34:58.246Z,13.51
2023-05-10T05:37:25.412Z,13.89
2023-05-10T05:39:51.959Z,14.44
2023-05-10T05:42:19.728Z,14.89
2023-05-10T05:44:46.697Z,15.12
2023-05-10T05:47:13.304Z,15.58
2023-05-10T05:49:40.349Z,15.73
2023-05-10T05:52:06.836Z,15.61
2023-05-10T05:54:33.454Z,15.94
2023-05-10T05:57:01.539Z,16.58
2023-05-10T05:59:28.431Z,16.56
2023-05-10T06:01:55.120Z,16.46
2023-05-10T06:04:21.901Z,16.83
2023-05-10T06:06:48.513Z,17.06
2023-05-10T06:09:15.098Z,17.03
2023-05-10T06:11:41.678Z,17.59
2023-05-10T06:14:08.870Z,18.13
2023-05-10T06:16:36.034Z,18.26
2023-05-10T06:19:03.563Z,18.37
2023-05-10T06:21:30.197Z,18.49
2023-05-10T06:23:56.801Z,18.59
2023-05-10T06:26:23.537Z,18.81
2023-05-10T06:28:50.056Z,19.02
2023-05-10T06:31:17.066Z,19.52
2023-05-10T06:33:43.536Z,19.53
2023-05-10T06:36:10.003Z,19.90
2023-05-10T06:38:36.470Z,20.28
2023-05-10T06:41:02.979Z,20.27
2023-05-10T06:43:29.767Z,20.64
2023-05-10T06:45:56.855Z,20.72
2023-05-10T06:48:23.530Z,20.85
2023-05-10T06:50:50.126Z,20.80
2023-05-10T06:53:16.662Z,21.01
2023-05-10T06:55:43.122Z,20.99
2023-05-10T06:58:09.635Z,21.07
2023-05-10T07:00:36.201Z,21.49
2023-05-10T07:03:02.773Z,21.68
2023-05-10T07:05:30.416Z,21.58
2023-05-10T07:07:56.951Z,21.63
2023-05-10T07:10:23.445Z,21.55
2023-05-10T07:12:50.062Z,21.66
2023-05-10T07:15:17.134Z,21.60
2023-05-10T07:17:45.896Z,21.54
2023-05-10T07:20:13.141Z,21.57
2023-05-10T07:22:39.620Z,21.21
2023-05-10T07:25:06.758Z,21.11
2023-05-10T07:27:33.550Z,21.07
2023-05-10T07:30:00.256Z,20.21
2023-05-10T07:32:26.910Z,18.81
2023-05-10T07:34:53.599Z,17.72
2023-05-10T07:37:20.182Z,17.11
2023-05-10T07:39:46.780Z,16.73
2023-05-10T07:42:13.241Z,16.42
2023-05-10T07:44:39.679Z,16.28
2023-05-10T07:47:06.259Z,16.04
2023-05-10T07:49:32.678Z,15.76
2023-05-10T07:51:59.151Z,15.91
2023-05-10T07:54:25.712Z,15.93
2023-05-10T07:56:52.320Z,16.01
2023-05-10T07:59:18.901Z,15.94
2023-05-10T08:01:45.972Z,15.97
2023-05-10T08:04:12.832Z,16.03
2023-05-10T08:06:40.480Z,16.02
2023-05-10T08:09:07.312Z,16.11
2023-05-10T08:11:35.035Z,16.16
2023-05-10T08:14:01.781Z,16.27
2023-05-10T08:16:28.600Z,16.29
2023-05-10T08:18:56.309Z,16.40
2023-05-10T08:21:23.000Z,16.35
2023-05-10T08:23:50.099Z,16.39
2023-05-10T08:26:16.773Z,16.41
2023-05-10T08:28:43.268Z,16.50
2023-05-10T08:31:09.850Z,16.61
2023-05-10T08:33:36.461Z,16.60
2023-05-10T08:36:03.002Z,16.73
2023-05-10T08:38:29.663Z,16.86
2023-05-10T08:41:00.029Z,16.97
2023-05-10T08:43:30.223Z,16.86
2023-05-10T08:45:59.820Z,16.92
2023-05-10T08:48:29.849Z,16.84
2023-05-10T08:51:01.106Z,16.87
2023-05-10T08:53:29.740Z,17.02
2023-05-10T08:55:56.556Z,16.98
2023-05-10T08:58:23.252Z,17.09
2023-05-10T09:00:52.443Z,17.16
2023-05-10T09:03:19.229Z,17.24
2023-05-10T09:05:46.145Z,17.25
2023-05-10T09:08:13.904Z,17.26
2023-05-10T09:10:41.062Z,17.44
2023-05-10T09:13:10.042Z,17.50
2023-05-10T09:15:36.533Z,17.46
2023-05-10T09:18:03.462Z,17.52
2023-05-10T09:20:30.053Z,17.64
2023-05-10T09:22:56.636Z,17.76
2023-05-10T09:25:23.649Z,17.88
2023-05-10T09:27:50.400Z,18.03
2023-05-10T09:30:30.833Z,17.99
2023-05-10T09:32:59.398Z,18.06
2023-05-10T09:35:31.207Z,18.11
2023-05-10T09:38:01.685Z,18.17
2023-05-10T09:40:29.895Z,18.07
2023-05-10T09:43:02.390Z,18.14
2023-05-10T09:45:36.128Z,18.16
2023-05-10T09:48:04.703Z,18.21
2023-05-10T09:50:31.635Z,17.97
2023-05-10T09:53:00.184Z,18.00
2023-05-10T09:55:40.091Z,18.09
2023-05-10T09:58:11.130Z,18.22
2023-05-10T10:00:42.148Z,18.08
2023-05-10T10:03:15.640Z,18.02
2023-05-10T10:05:44.238Z,18.04
2023-05-10T10:08:12.123Z,18.14
2023-05-10T10:10:41.266Z,18.24
2023-05-10T10:13:08.471Z,18.39
2023-05-10T10:15:36.535Z,18.39
2023-05-10T10:18:05.198Z,18.53
2023-05-10T10:20:32.534Z,18.58
2023-05-10T10:22:59.078Z,18.60
2023-05-10T10:25:26.426Z,18.63
2023-05-10T10:27:52.812Z,18.67
2023-05-10T10:30:25.246Z,18.71
2023-05-10T10:33:28.829Z,18.75
2023-05-10T10:35:58.952Z,18.68
2023-05-10T10:38:25.639Z,18.71
2023-05-10T10:41:10.980Z,18.93
2023-05-10T10:43:37.574Z,18.92
2023-05-10T10:46:15.652Z,18.90
2023-05-10T10:48:47.962Z,18.88
2023-05-10T10:51:15.297Z,18.94
2023-05-10T10:53:42.354Z,18.87
2023-05-10T10:56:11.012Z,18.71
2023-05-10T10:58:39.314Z,18.69
2023-05-10T11:01:17.997Z,18.77
2023-05-10T11:04:20.816Z,18.74
2023-05-10T11:06:47.395Z,18.70
2023-05-10T11:09:13.993Z,18.63
2023-05-10T11:11:52.934Z,18.83
2023-05-10T11:14:22.795Z,18.93
2023-05-10T11:16:49.424Z,18.97
2023-05-10T11:19:17.533Z,19.15
2023-05-10T11:22:16.581Z,19.32
2023-05-10T11:24:57.678Z,19.39
2023-05-10T11:27:24.345Z,19.42
2023-05-10T11:29:53.714Z,19.54
2023-05-10T11:32:20.681Z,19.46
2023-05-10T11:34:48.941Z,19.52
2023-05-10T11:37:15.484Z,19.60
2023-05-10T11:39:48.180Z,19.63
2023-05-10T11:42:14.688Z,19.68
2023-05-10T11:44:42.020Z,19.72
2023-05-10T11:47:08.614Z,19.67
2023-05-10T11:49:35.085Z,19.71
2023-05-10T11:52:06.286Z,19.77
2023-05-10T11:54:32.796Z,19.88
2023-05-10T11:56:59.247Z,19.78
2023-05-10T11:59:26.301Z,19.78
2023-05-10T12:01:52.973Z,19.69
2023-05-10T12:04:20.075Z,19.60
2023-05-10T12:06:47.614Z,19.58
2023-05-10T12:09:15.766Z,19.62
2023-05-10T12:11:44.504Z,19.78
2023-05-10T12:14:11.893Z,19.76
2023-05-10T12:16:38.606Z,19.81
2023-05-10T12:19:06.452Z,19.98
2023-05-10T12:21:33.729Z,20.13
2023-05-10T12:24:02.662Z,19.89
2023-05-10T12:26:30.253Z,19.86
2023-05-10T12:29:13.271Z,19.89
2023-05-10T12:31:57.305Z,19.85
2023-05-10T12:34:35.250Z,19.80
2023-05-10T12:37:02.483Z,19.73
2023-05-10T12:39:42.913Z,19.81
2023-05-10T12:42:10.056Z,19.92
2023-05-10T12:44:36.642Z,20.04
2023-05-10T12:47:03.490Z,20.14
2023-05-10T12:49:30.202Z,20.21
2023-05-10T12:51:56.709Z,20.21
2023-05-10T12:54:23.189Z,20.19
2023-05-10T12:56:49.645Z,20.23
2023-05-10T12:59:16.094Z,20.17
2023-05-10T13:01:42.654Z,20.08
2023-05-10T13:04:09.167Z,20.25
2023-05-10T13:06:36.114Z,20.45
2023-05-10T13:09:02.649Z,20.58
2023-05-10T13:11:29.127Z,20.29
2023-05-10T13:13:56.557Z,20.13
2023-05-10T13:16:23.465Z,20.18
2023-05-10T13:18:50.055Z,20.30
2023-05-10T13:21:17.584Z,20.34
2023-05-10T13:23:44.076Z,20.32
2023-05-10T13:26:10.613Z,20.44
2023-05-10T13:28:37.120Z,20.57
2023-05-10T13:31:03.734Z,20.48
2023-05-10T13:33:30.302Z,20.35
2023-05-10T13:35:56.835Z,20.28
2023-05-10T13:38:23.393Z,20.31
2023-05-10T13:40:53.411Z,20.34
2023-05-10T13:43:20.494Z,20.45
2023-05-10T13:45:47.086Z,20.53
2023-05-10T13:48:13.688Z,20.73
2023-05-10T13:50:40.226Z,20.82
2023-05-10T13:53:06.758Z,20.70
2023-05-10T13:55:33.389Z,20.57
2023-05-10T13:57:59.966Z,20.47
2023-05-10T14:00:26.469Z,20.70
2023-05-10T14:02:53.150Z,20.79
2023-05-10T14:05:23.839Z,20.63
2023-05-10T14:07:52.284Z,20.76
2023-05-10T14:10:18.781Z,20.76
2023-05-10T14:12:45.275Z,20.90
2023-05-10T14:15:12.590Z,21.03
2023-05-10T14:17:39.147Z,21.20
2023-05-10T14:20:06.451Z,21.19
2023-05-10T14:22:32.946Z,21.10
2023-05-10T14:24:59.510Z,21.22
2023-05-10T14:27:26.076Z,21.28
2023-05-10T14:29:52.998Z,21.45
2023-05-10T14:32:19.706Z,21.28
2023-05-10T14:34:46.450Z,21.27
2023-05-10T14:37:14.931Z,21.28
2023-05-10T14:39:41.780Z,21.23
2023-05-10T14:42:08.512Z,21.04
2023-05-10T14:44:35.065Z,21.03
2023-05-10T14:47:01.645Z,21.10
2023-05-10T14:49:28.186Z,20.99
2023-05-10T14:51:54.736Z,21.21
2023-05-10T14:54:21.579Z,21.23
2023-05-10T14:56:49.827Z,21.42
2023-05-10T14:59:16.727Z,21.62
2023-05-10T15:01:44.095Z,21.76
2023-05-10T15:04:11.285Z,21.85
2023-05-10T15:06:38.137Z,22.01
2023-05-10T15:09:04.854Z,21.72
2023-05-10T15:11:31.521Z,21.55
2023-05-10T15:13:58.036Z,21.42
2023-05-10T15:16:24.878Z,21.16
2023-05-10T15:18:51.705Z,20.90
2023-05-10T15:21:18.269Z,21.00
2023-05-10T15:23:45.217Z,21.11
2023-05-10T15:26:11.750Z,21.30
2023-05-10T15:28:38.289Z,21.42
2023-05-10T15:31:06.277Z,21.44
2023-05-10T15:33:32.865Z,21.40
2023-05-10T15:35:59.316Z,21.45
2023-05-10T15:38:25.846Z,21.42
2023-05-10T15:40:55.891Z,21.23
2023-05-10T15:43:22.469Z,21.11
2023-05-10T15:45:49.032Z,20.91
2023-05-10T15:48:15.612Z,20.85
2023-05-10T15:50:42.248Z,20.95
2023-05-10T15:53:08.760Z,21.15
2023-05-10T15:55:35.418Z,21.22
2023-05-10T15:58:02.079Z,21.24
2023-05-10T16:00:28.919Z,21.17
2023-05-10T16:02:55.574Z,21.14
2023-05-10T16:05:22.676Z,20.96
2023-05-10T16:07:49.672Z,20.84
2023-05-10T16:10:16.346Z,20.68
2023-05-10T16:12:42.934Z,20.58
2023-05-10T16:15:10.158Z,20.62
2023-05-10T16:17:37.413Z,20.58
2023-05-10T16:20:05.073Z,20.58
2023-05-10T16:22:31.693Z,20.57
2023-05-10T16:24:59.886Z,20.59
2023-05-10T16:27:28.734Z,20.67
2023-05-10T16:29:55.627Z,20.67
2023-05-10T16:32:22.299Z,20.64
2023-05-10T16:34:50.297Z,20.71
2023-05-10T16:37:16.886Z,20.62
2023-05-10T16:39:43.449Z,20.58
2023-05-10T16:42:09.932Z,20.55
2023-05-10T16:44:36.835Z,20.49
2023-05-10T16:47:03.432Z,20.27
2023-05-10T16:49:29.934Z,20.15
2023-05-10T16:51:56.505Z,20.24
2023-05-10T16:54:23.331Z,20.30
2023-05-10T16:56:49.839Z,20.35
2023-05-10T16:59:16.590Z,20.23
2023-05-10T17:01:43.650Z,20.08
2023-05-10T17:04:10.288Z,20.10
2023-05-10T17:06:37.534Z,20.09
2023-05-10T17:09:05.622Z,20.04
2023-05-10T17:11:32.749Z,19.97
2023-05-10T17:13:59.662Z,19.92
2023-05-10T17:16:26.205Z,19.78
2023-05-10T17:18:53.063Z,19.63
2023-05-10T17:21:19.721Z,19.47
2023-05-10T17:23:46.295Z,19.43
2023-05-10T17:26:12.957Z,19.42
2023-05-10T17:28:39.529Z,19.50
2023-05-10T17:31:05.996Z,19.45
2023-05-10T17:33:32.580Z,19.40
2023-05-10T17:35:59.151Z,19.38
2023-05-10T17:38:26.245Z,19.42
2023-05-10T17:40:52.764Z,19.43
2023-05-10T17:43:20.834Z,19.37
2023-05-10T17:45:50.233Z,19.24
2023-05-10T17:48:17.317Z,19.23
2023-05-10T17:50:44.415Z,19.34
2023-05-10T17:53:11.163Z,19.43
2023-05-10T17:55:41.170Z,19.48
2023-05-10T17:58:08.070Z,19.38
2023-05-10T18:00:34.692Z,19.17
2023-05-10T18:03:02.403Z,18.91
2023-05-10T18:05:29.022Z,18.56
2023-05-10T18:07:56.407Z,18.23
2023-05-10T18:10:24.423Z,18.05
2023-05-10T18:12:51.663Z,17.89
2023-05-10T18:15:18.358Z,17.66
2023-05-10T18:17:45.337Z,17.56
2023-05-10T18:20:13.001Z,17.40
2023-05-10T18:22:39.932Z,17.18
2023-05-10T18:25:07.016Z,17.03
2023-05-10T18:27:34.352Z,16.92
2023-05-10T18:30:00.860Z,16.81
2023-05-10T18:32:28.145Z,16.69
2023-05-10T18:34:55.885Z,16.62
2023-05-10T18:37:22.550Z,16.53
2023-05-10T18:39:49.334Z,16.48
2023-05-10T18:42:16.405Z,16.43
2023-05-10T18:44:42.853Z,16.40
2023-05-10T18:47:09.425Z,16.37
2023-05-10T18:49:35.859Z,16.31
2023-05-10T18:52:02.394Z,16.25
2023-05-10T18:54:29.812Z,16.21
2023-05-10T18:56:57.396Z,16.15
2023-05-10T18:59:25.002Z,16.07
2023-05-10T19:01:52.670Z,16.04
2023-05-10T19:04:20.611Z,15.98
2023-05-10T19:06:47.402Z,15.99
2023-05-10T19:09:14.101Z,15.99
2023-05-10T19:11:41.182Z,16.01
2023-05-10T19:14:07.695Z,15.96
2023-05-10T19:16:34.516Z,15.93
2023-05-10T19:19:02.956Z,15.86
2023-05-10T19:21:29.581Z,15.87
2023-05-10T19:23:58.486Z,15.83
2023-05-10T19:26:25.150Z,15.78
2023-05-10T19:28:52.476Z,15.74
2023-05-10T19:31:20.016Z,15.68
2023-05-10T19:33:47.103Z,15.64
2023-05-10T19:36:13.751Z,15.61
2023-05-10T19:38:40.302Z,15.57
2023-05-10T19:41:07.397Z,15.48
2023-05-10T19:43:36.980Z,15.38
2023-05-10T19:46:03.988Z,15.30
2023-05-10T19:48:31.752Z,15.22
2023-05-10T19:51:03.141Z,15.16
2023-05-10T19:53:30.171Z,15.08
2023-05-10T19:56:02.385Z,15.01
2023-05-10T19:58:29.700Z,14.91
2023-05-10T20:00:56.478Z,14.82
2023-05-10T20:03:23.103Z,14.76
2023-05-10T20:05:49.806Z,14.72
2023-05-10T20:08:16.757Z,14.62
2023-05-10T20:10:43.463Z,14.59
2023-05-10T20:13:10.067Z,14.54
2023-05-10T20:15:36.677Z,14.52
2023-05-10T20:18:03.768Z,14.50
2023-05-10T20:20:30.583Z,14.50
2023-05-10T20:23:00.362Z,14.46
2023-05-10T20:25:27.372Z,14.36
2023-05-10T20:27:54.557Z,14.27
2023-05-10T20:30:21.580Z,14.21
2023-05-10T20:32:48.134Z,14.18
2023-05-10T20:35:14.816Z,14.11
2023-05-10T20:37:41.290Z,14.09
2023-05-10T20:40:08.620Z,14.02
2023-05-10T20:42:35.544Z,13.93
2023-05-10T20:45:02.167Z,13.88
2023-05-10T20:47:28.732Z,13.82
2023-05-10T20:49:55.499Z,13.79
2023-05-10T20:52:23.411Z,13.73
2023-05-10T20:54:51.125Z,13.69
2023-05-10T20:57:17.674Z,13.66
2023-05-10T20:59:44.219Z,13.63
2023-05-10T21:02:10.785Z,13.57
2023-05-10T21:04:37.370Z,13.55
2023-05-10T21:07:03.937Z,13.49
2023-05-10T21:09:30.632Z,13.48
2023-05-10T21:11:58.157Z,13.44
2023-05-10T21:14:24.865Z,13.33
2023-05-10T21:16:51.747Z,13.27
2023-05-10T21:19:18.431Z,13.25
2023-05-10T21:21:45.104Z,13.24
2023-05-10T21:24:12.352Z,13.24
2023-05-10T21:26:38.899Z,13.17
2023-05-10T21:29:06.139Z,13.12
2023-05-10T21:31:32.751Z,13.07
2023-05-10T21:33:59.225Z,13.00
2023-05-10T21:36:26.106Z,12.99
2023-05-10T21:38:52.657Z,12.93
2023-05-10T21:41:19.185Z,12.87
2023-05-10T21:43:45.779Z,12.83
2023-05-10T21:46:13.528Z,12.76
2023-05-10T21:48:40.120Z,12.71
2023-05-10T21:51:06.960Z,12.65
2023-05-10T21:53:33.539Z,12.63
2023-05-10T21:55:59.977Z,12.56
2023-05-10T21:58:26.622Z,12.54
2023-05-10T22:00:53.159Z,12.52
2023-05-10T22:03:19.806Z,12.46
2023-05-10T22:05:46.437Z,12.35
2023-05-10T22:08:12.928Z,12.29
2023-05-10T22:10:39.401Z,12.27
2023-05-10T22:13:05.891Z,12.20
2023-05-10T22:15:34.150Z,12.15
2023-05-10T22:18:02.429Z,12.13
2023-05-10T22:20:29.180Z,12.14
2023-05-10T22:22:56.060Z,12.10
2023-05-10T22:25:22.760Z,12.05
2023-05-10T22:27:49.298Z,12.00
2023-05-10T22:30:16.305Z,11.92
2023-05-10T22:32:43.135Z,11.82
2023-05-10T22:35:10.057Z,11.74
2023-05-10T22:37:36.634Z,11.65
2023-05-10T22:40:03.953Z,11.56
2023-05-10T22:42:30.547Z,11.47
2023-05-10T22:44:57.161Z,11.44
2023-05-10T22:47:23.746Z,11.41
2023-05-10T22:49:50.314Z,11.39
2023-05-10T22:52:16.888Z,11.38
2023-05-10T22:54:44.295Z,11.36
2023-05-10T22:57:11.246Z,11.36
2023-05-10T22:59:37.799Z,11.38
2023-05-10T23:02:04.385Z,11.43
2023-05-10T23:04:31.204Z,11.50
2023-05-10T23:06:57.923Z,11.56
2023-05-10T23:09:24.512Z,11.61
2023-05-10T23:11:51.012Z,11.62
2023-05-10T23:14:17.489Z,11.64
2023-05-10T23:16:44.092Z,11.64
2023-05-10T23:19:10.874Z,11.59
2023-05-10T23:21:37.466Z,11.52
2023-05-10T23:24:04.193Z,11.49
2023-05-10T23:26:30.792Z,11.43
2023-05-10T23:28:57.338Z,11.34
2023-05-10T23:31:23.884Z,11.27
2023-05-10T23:33:50.404Z,11.14
2023-05-10T23:36:16.986Z,11.02
2023-05-10T23:38:43.558Z,10.91
2023-05-10T23:41:10.023Z,10.79
2023-05-10T23:43:36.693Z,10.69
2023-05-10T23:46:05.194Z,10.60
2023-05-10T23:48:31.990Z,10.55
2023-05-10T23:50:58.531Z,10.45
2023-05-10T23:53:25.170Z,10.41
2023-05-10T23:55:51.811Z,10.39
2023-05-10T23:58:18.375Z,10.37
